Time;durP1;ratioP1;P1;durP2;ratioP2;P2;SDS_P1;SDS_P2;PMS_P1;PMS_P2;Temp;Humidity;BMP_temperature;BMP_pressure;BME280_temperature;BME280_humidity;BME280_pressure;Samples;Min_cycle;Max_cycle;Signal;HPM_P1;HPM_P2
2021/04/14 00:02:27;;;;;;;4.40;2.03;;;17.60;76.20;;;;;;4968651;28;96119;-42
2021/04/14 00:05:02;;;;;;;3.97;1.92;;;17.60;76.20;;;;;;4983020;28;95995;-42
2021/04/14 00:07:33;;;;;;;4.72;1.90;;;17.60;76.20;;;;;;4976781;28;95688;-43
2021/04/14 00:10:06;;;;;;;7.22;2.63;;;17.60;76.10;;;;;;4983210;28;95259;-42
2021/04/14 00:12:37;;;;;;;4.18;2.10;;;17.70;76.20;;;;;;4980017;28;96436;-42
2021/04/14 00:15:15;;;;;;;4.07;1.77;;;17.60;76.20;;;;;;4981130;28;100650;-44
2021/04/14 00:17:45;;;;;;;3.67;2.10;;;17.70;76.30;;;;;;4980080;28;95871;-48
2021/04/14 00:20:16;;;;;;;2.47;1.60;;;17.70;76.10;;;;;;4977872;28;95316;-46
2021/04/14 00:22:46;;;;;;;5.00;2.35;;;17.70;76.10;;;;;;5011546;28;96483;-52
2021/04/14 00:25:24;;;;;;;3.20;1.73;;;17.70;76.20;;;;;;4982903;28;95575;-44
2021/04/14 00:27:55;;;;;;;6.22;1.92;;;17.70;76.10;;;;;;4982572;28;95547;-43
2021/04/14 00:30:26;;;;;;;3.33;2.30;;;17.70;76.30;;;;;;4975500;28;95372;-45
2021/04/14 00:32:57;;;;;;;4.25;2.13;;;17.70;76.00;;;;;;4982008;28;102384;-46
2021/04/14 00:35:27;;;;;;;4.03;2.28;;;17.70;76.10;;;;;;4977251;28;96407;-44
2021/04/14 00:37:58;;;;;;;2.75;1.90;;;17.70;76.00;;;;;;4987833;28;95732;-43
2021/04/14 00:40:36;;;;;;;4.75;2.22;;;17.70;76.10;;;;;;4984175;28;95833;-44
2021/04/14 00:43:22;;;;;;;6.47;3.03;;;17.70;76.10;;;;;;5017389;28;95876;-43
2021/04/14 00:45:53;;;;;;;4.20;2.25;;;17.80;76.10;;;;;;4977898;28;95839;-43
2021/04/14 00:48:26;;;;;;;4.00;2.42;;;17.70;76.00;;;;;;4985071;28;96240;-42
2021/04/14 00:50:57;;;;;;;2.97;2.17;;;17.80;76.10;;;;;;4974952;28;95352;-43
2021/04/14 00:53:27;;;;;;;5.93;3.50;;;17.80;76.10;;;;;;4987260;28;98391;-42
2021/04/14 00:55:58;;;;;;;5.93;3.50;;;17.80;76.00;;;;;;4985039;28;95298;-42
2021/04/14 00:58:28;;;;;;;4.15;2.35;;;17.80;76.00;;;;;;4986215;28;95725;-42
2021/04/14 01:00:59;;;;;;;3.78;3.22;;;17.80;75.90;;;;;;4981981;28;95834;-41
2021/04/14 01:03:34;;;;;;;5.90;2.93;;;17.80;75.90;;;;;;4982627;28;96059;-43
2021/04/14 01:06:10;;;;;;;5.32;2.67;;;17.80;76.00;;;;;;4980672;28;95533;-43
2021/04/14 01:08:41;;;;;;;4.07;2.70;;;17.80;76.10;;;;;;5005969;28;95725;-43
2021/04/14 01:11:13;;;;;;;7.20;2.53;;;17.80;76.00;;;;;;4980031;28;95794;-43
2021/04/14 01:13:44;;;;;;;4.63;2.50;;;17.80;76.00;;;;;;4987528;28;96985;-43
2021/04/14 01:16:16;;;;;;;3.20;2.10;;;17.90;75.90;;;;;;4981584;28;95764;-43
2021/04/14 01:18:45;;;;;;;6.77;3.00;;;17.90;76.00;;;;;;4987924;28;95832;-42
2021/04/14 01:21:24;;;;;;;5.32;2.67;;;17.90;76.10;;;;;;4982737;28;96997;-42
2021/04/14 01:23:56;;;;;;;4.00;2.40;;;17.90;75.90;;;;;;4978229;28;96581;-44
2021/04/14 01:26:27;;;;;;;3.97;2.05;;;17.90;75.80;;;;;;4974007;28;96033;-44
2021/04/14 01:29:02;;;;;;;5.72;3.33;;;17.90;75.80;;;;;;4988593;28;96444;-42
2021/04/14 01:31:33;;;;;;;4.43;2.83;;;17.90;75.70;;;;;;4977112;28;96155;-43
2021/04/14 01:34:10;;;;;;;5.63;2.78;;;17.90;75.70;;;;;;4983071;28;97833;-42
2021/04/14 01:36:40;;;;;;;5.43;3.05;;;17.90;75.80;;;;;;4985082;28;95791;-43
2021/04/14 01:39:13;;;;;;;6.40;3.20;;;17.90;75.80;;;;;;4988012;28;95548;-42
2021/04/14 01:41:42;;;;;;;;;;;17.90;75.80;;;;;;4981321;28;96810;-43
2021/04/14 01:44:13;;;;;;;6.40;3.20;;;17.90;75.80;;;;;;4976208;28;96051;-43
2021/04/14 01:46:45;;;;;;;4.82;2.90;;;17.90;75.90;;;;;;4982996;28;96399;-43
2021/04/14 01:49:16;;;;;;;7.43;2.45;;;17.90;76.00;;;;;;4984958;28;95823;-42
2021/04/14 01:51:46;;;;;;;3.92;2.70;;;17.90;76.00;;;;;;4985954;28;95438;-43
2021/04/14 01:54:19;;;;;;;6.03;2.67;;;17.90;75.90;;;;;;4986497;28;96850;-42
2021/04/14 01:56:50;;;;;;;5.35;2.80;;;17.90;76.00;;;;;;4979033;28;98349;-42
2021/04/14 01:59:21;;;;;;;3.10;2.33;;;17.90;75.80;;;;;;4977454;28;95854;-45
2021/04/14 02:01:51;;;;;;;5.90;2.73;;;18.00;76.00;;;;;;4981069;28;95911;-44
2021/04/14 02:04:21;;;;;;;5.03;2.77;;;18.00;76.00;;;;;;4981511;28;96441;-45
2021/04/14 02:06:52;;;;;;;4.55;2.67;;;18.00;75.80;;;;;;4983278;28;96070;-45
2021/04/14 02:09:23;;;;;;;3.63;2.47;;;18.10;75.60;;;;;;4989052;28;95247;-44
2021/04/14 02:11:52;;;;;;;6.32;2.92;;;18.10;75.50;;;;;;4984821;28;95789;-48
2021/04/14 02:14:22;;;;;;;3.63;1.92;;;18.10;75.30;;;;;;4977372;28;97030;-48
2021/04/14 02:16:51;;;;;;;4.13;2.45;;;18.10;75.20;;;;;;4973295;28;95903;-49
2021/04/14 02:19:23;;;;;;;4.28;2.10;;;18.20;75.20;;;;;;4987303;28;95765;-46
2021/04/14 02:21:55;;;;;;;5.78;2.92;;;18.20;75.10;;;;;;5003545;28;95811;-45
2021/04/14 02:24:25;;;;;;;2.80;2.53;;;18.30;75.00;;;;;;4983721;28;95883;-46
2021/04/14 02:26:56;;;;;;;3.37;2.23;;;18.30;74.90;;;;;;4974837;28;95596;-46
2021/04/14 02:29:27;;;;;;;3.33;2.38;;;18.30;74.70;;;;;;4986294;28;95767;-46
2021/04/14 02:31:58;;;;;;;5.13;2.05;;;18.40;74.80;;;;;;4967955;28;95752;-45
2021/04/14 02:34:29;;;;;;;3.75;2.63;;;18.40;74.70;;;;;;4979709;28;95759;-46
2021/04/14 02:37:00;;;;;;;3.95;2.08;;;18.40;74.60;;;;;;4982867;28;95739;-45
2021/04/14 02:39:30;;;;;;;4.20;2.03;;;18.40;74.40;;;;;;4982281;28;95686;-47
2021/04/14 02:42:01;;;;;;;3.83;2.65;;;18.40;74.40;;;;;;4987102;28;95706;-45
2021/04/14 02:44:32;;;;;;;3.65;2.28;;;18.40;74.30;;;;;;5010058;28;96168;-45
2021/04/14 02:47:03;;;;;;;4.95;2.47;;;18.50;74.30;;;;;;4973663;28;96406;-47
2021/04/14 02:49:36;;;;;;;4.53;2.20;;;18.50;74.30;;;;;;4976929;28;95671;-48
2021/04/14 02:52:06;;;;;;;4.18;2.58;;;18.50;74.20;;;;;;4976055;28;95620;-48
2021/04/14 02:54:37;;;;;;;4.55;2.33;;;18.50;74.10;;;;;;4979704;28;95987;-46
2021/04/14 02:57:07;;;;;;;5.95;2.35;;;18.60;74.70;;;;;;4980370;28;95731;-45
2021/04/14 02:59:37;;;;;;;3.25;2.20;;;18.60;73.80;;;;;;4986968;28;95685;-47
2021/04/14 03:02:08;;;;;;;3.88;2.55;;;18.60;73.80;;;;;;4977517;28;96182;-45
2021/04/14 03:04:39;;;;;;;3.20;2.22;;;18.60;73.90;;;;;;4976848;28;96428;-45
2021/04/14 03:07:09;;;;;;;5.30;1.98;;;18.70;73.80;;;;;;5005974;28;95666;-47
2021/04/14 03:09:40;;;;;;;;;;;18.70;73.70;;;;;;4990614;28;95658;-46
2021/04/14 03:12:12;;;;;;;5.85;2.28;;;18.80;73.60;;;;;;4991478;28;95915;-47
2021/04/14 03:14:42;;;;;;;3.67;1.67;;;18.80;73.60;;;;;;4981105;28;97017;-46
2021/04/14 03:17:13;;;;;;;2.88;2.10;;;18.70;73.50;;;;;;4978116;28;95381;-46
2021/04/14 03:19:43;;;;;;;2.92;1.40;;;18.80;73.50;;;;;;4986248;28;95375;-46
2021/04/14 03:22:15;;;;;;;5.13;2.28;;;18.80;73.50;;;;;;4972826;28;95725;-45
2021/04/14 03:24:46;;;;;;;3.78;2.00;;;18.80;73.40;;;;;;4986327;28;97424;-46
2021/04/14 03:27:16;;;;;;;3.55;2.10;;;18.90;73.20;;;;;;4988008;28;95841;-46
2021/04/14 03:29:46;;;;;;;2.85;1.73;;;18.90;73.20;;;;;;4985470;28;95774;-51
2021/04/14 03:32:17;;;;;;;3.03;1.85;;;18.90;73.20;;;;;;4975807;28;95466;-49
2021/04/14 03:34:47;;;;;;;2.78;1.92;;;18.90;73.20;;;;;;4981572;28;96376;-49
2021/04/14 03:37:16;;;;;;;4.13;2.03;;;19.00;73.10;;;;;;4973767;28;98192;-47
2021/04/14 03:39:47;;;;;;;3.28;1.90;;;19.00;73.10;;;;;;4979130;28;95920;-50
2021/04/14 03:42:18;;;;;;;3.15;2.05;;;19.00;73.20;;;;;;4979756;28;96379;-43
2021/04/14 03:44:52;;;;;;;3.97;2.28;;;19.00;73.00;;;;;;4982421;28;96215;-50
2021/04/14 03:47:24;;;;;;;3.83;1.90;;;19.00;73.20;;;;;;4995242;28;97855;-51
2021/04/14 03:49:54;;;;;;;2.30;1.97;;;19.00;73.10;;;;;;4985346;28;95960;-48
2021/04/14 03:52:25;;;;;;;3.88;1.65;;;19.00;73.20;;;;;;4977145;28;95868;-49
2021/04/14 03:54:56;;;;;;;3.45;2.20;;;19.10;72.90;;;;;;4975170;28;95909;-50
2021/04/14 03:57:26;;;;;;;2.75;1.77;;;19.10;72.90;;;;;;4988091;28;95871;-49
2021/04/14 03:59:56;;;;;;;3.13;1.63;;;19.10;73.00;;;;;;4982099;28;95443;-50
2021/04/14 04:02:27;;;;;;;4.25;2.60;;;19.10;73.00;;;;;;4973057;28;96055;-50
2021/04/14 04:04:58;;;;;;;2.20;1.73;;;19.10;72.80;;;;;;4985029;28;95749;-49
2021/04/14 04:07:28;;;;;;;5.05;1.90;;;19.10;72.70;;;;;;4972374;28;96146;-41
2021/04/14 04:09:59;;;;;;;10.00;1.98;;;19.20;73.00;;;;;;5012087;28;95904;-44
2021/04/14 04:12:29;;;;;;;3.50;2.45;;;19.30;73.90;;;;;;4982371;28;95996;-37
2021/04/14 04:15:00;;;;;;;5.47;2.92;;;19.30;74.10;;;;;;5009544;28;95998;-38
2021/04/14 04:17:30;;;;;;;3.90;2.53;;;19.40;74.10;;;;;;4975099;28;95728;-40
2021/04/14 04:20:02;;;;;;;9.38;2.25;;;19.50;74.00;;;;;;4979405;28;95898;-39
2021/04/14 04:22:32;;;;;;;3.88;2.60;;;19.50;74.10;;;;;;5010605;28;95530;-41
2021/04/14 04:25:04;;;;;;;11.75;2.72;;;19.50;74.20;;;;;;4968171;28;95881;-41
2021/04/14 04:27:35;;;;;;;5.00;2.10;;;19.60;74.30;;;;;;4944335;28;97952;-43
2021/04/14 04:30:09;;;;;;;12.00;4.22;;;19.60;74.20;;;;;;4954525;28;96145;-40
2021/04/14 04:32:40;;;;;;;6.47;2.53;;;19.70;74.10;;;;;;4954659;28;95353;-40
2021/04/14 04:35:10;;;;;;;5.20;3.20;;;19.80;74.00;;;;;;4957473;28;96078;-42
2021/04/14 04:37:40;;;;;;;4.70;2.78;;;19.90;73.90;;;;;;4949337;28;95867;-44
2021/04/14 04:40:10;;;;;;;4.97;3.00;;;19.90;74.00;;;;;;4933356;28;96523;-44
2021/04/14 04:45:42;;;;;;;3.90;2.53;;;20.00;73.70;;;;;;4919287;28;101930;-41
2021/04/14 04:48:13;;;;;;;7.53;3.08;;;20.10;73.70;;;;;;4960112;28;96159;-42
2021/04/14 04:50:46;;;;;;;9.73;3.17;;;20.20;73.30;;;;;;4964958;28;95473;-40
2021/04/14 04:53:24;;;;;;;3.67;2.83;;;20.40;72.90;;;;;;4963917;28;95677;-39
2021/04/14 04:55:59;;;;;;;6.40;2.83;;;20.50;73.00;;;;;;4953567;28;95635;-40
2021/04/14 04:58:31;;;;;;;8.23;3.50;;;20.60;72.50;;;;;;4954862;28;96637;-39
2021/04/14 05:01:08;;;;;;;9.35;3.72;;;20.50;72.60;;;;;;4952034;28;95609;-39
2021/04/14 05:04:15;;;;;;;7.43;3.85;;;20.50;72.60;;;;;;4963387;28;95000;-39
2021/04/14 05:07:12;;;;;;;5.90;3.47;;;20.50;72.70;;;;;;4953444;28;95639;-39
2021/04/14 05:10:07;;;;;;;5.95;3.75;;;20.50;72.80;;;;;;4955919;28;95900;-39
2021/04/14 05:12:43;;;;;;;6.05;3.45;;;20.50;72.80;;;;;;4956023;28;95145;-39
2021/04/14 05:15:15;;;;;;;6.60;4.13;;;20.50;72.80;;;;;;4950175;28;95553;-39
2021/04/14 05:17:44;;;;;;;6.13;3.40;;;20.50;72.70;;;;;;4958849;28;103230;-39
2021/04/14 05:20:14;;;;;;;4.45;3.08;;;20.50;72.70;;;;;;4963138;28;95642;-40
2021/04/14 05:22:45;;;;;;;4.18;2.72;;;20.50;72.70;;;;;;4975150;28;96145;-41
2021/04/14 05:25:21;;;;;;;3.97;3.50;;;20.50;72.70;;;;;;4962052;28;95284;-41
2021/04/14 05:27:53;;;;;;;5.68;3.47;;;20.60;72.40;;;;;;4954067;28;98352;-41
2021/04/14 05:30:25;;;;;;;3.67;3.17;;;20.60;72.20;;;;;;4949764;28;98832;-41
2021/04/14 05:32:55;;;;;;;4.32;3.17;;;20.60;72.00;;;;;;4953707;28;95156;-41
2021/04/14 05:35:25;;;;;;;3.30;2.75;;;20.70;71.80;;;;;;4959520;28;95925;-41
2021/04/14 05:37:54;;;;;;;4.93;2.88;;;20.70;71.70;;;;;;4956297;28;96083;-41
2021/04/14 05:40:24;;;;;;;3.08;2.75;;;20.80;71.50;;;;;;4955369;28;97363;-41
2021/04/14 05:42:54;;;;;;;3.95;3.15;;;20.80;71.40;;;;;;4960633;28;95647;-41
2021/04/14 05:45:30;;;;;;;6.20;3.20;;;20.90;71.40;;;;;;4986109;28;95826;-41
2021/04/14 05:47:59;;;;;;;2.55;2.35;;;20.90;71.30;;;;;;4955083;28;102197;-40
2021/04/14 05:50:30;;;;;;;4.78;2.97;;;20.90;71.10;;;;;;4970872;28;98351;-41
2021/04/14 05:53:01;;;;;;;3.33;3.00;;;20.90;71.10;;;;;;4991746;28;95220;-41
2021/04/14 05:55:32;;;;;;;4.13;2.83;;;20.90;71.10;;;;;;4959525;28;96118;-40
2021/04/14 05:58:02;;;;;;;2.53;2.33;;;21.00;71.10;;;;;;4955462;28;96762;-40
2021/04/14 06:00:33;;;;;;;2.75;2.50;;;20.90;71.00;;;;;;4957091;28;98476;-40
2021/04/14 06:03:04;;;;;;;;;;;20.90;71.00;;;;;;4955430;28;95873;-40
2021/04/14 06:05:37;;;;;;;3.08;2.08;;;21.00;70.90;;;;;;4953545;28;95786;-41
2021/04/14 06:08:09;;;;;;;2.45;2.25;;;21.00;70.90;;;;;;4960174;28;96489;-41
2021/04/14 06:10:38;;;;;;;2.47;2.23;;;21.00;70.80;;;;;;4958591;28;96348;-41
2021/04/14 06:13:08;;;;;;;5.25;3.25;;;21.00;70.70;;;;;;4958975;28;95606;-41
2021/04/14 06:15:39;;;;;;;3.88;2.45;;;21.00;70.80;;;;;;4957965;28;95518;-41
2021/04/14 06:18:09;;;;;;;2.88;2.50;;;21.10;70.80;;;;;;4964893;28;96422;-48
2021/04/14 06:20:39;;;;;;;2.40;2.20;;;21.10;70.70;;;;;;4954362;28;98034;-48
2021/04/14 06:23:18;;;;;;;3.00;2.25;;;21.10;70.60;;;;;;4955854;28;95617;-41
2021/04/14 06:28:55;;;;;;;2.58;2.38;;;21.10;70.70;;;;;;4941349;28;95852;-41
2021/04/14 06:31:26;;;;;;;2.90;2.45;;;21.10;70.50;;;;;;4953669;28;96029;-41
2021/04/14 06:33:57;;;;;;;2.83;2.10;;;21.20;70.60;;;;;;4957433;28;95211;-41
2021/04/14 06:36:26;;;;;;;2.95;2.20;;;21.20;70.50;;;;;;4951404;28;96001;-41
2021/04/14 06:38:56;;;;;;;2.58;1.80;;;21.20;70.50;;;;;;4951783;28;96447;-40
2021/04/14 06:44:48;;;;;;;1.75;1.65;;;21.20;70.30;;;;;;4961138;28;95590;-41
2021/04/14 06:47:33;;;;;;;4.10;2.50;;;21.20;70.40;;;;;;4932644;28;95411;-40
2021/04/14 06:50:08;;;;;;;3.38;2.40;;;21.30;70.40;;;;;;4960823;28;95814;-41
2021/04/14 06:52:51;;;;;;;2.60;1.95;;;21.20;70.30;;;;;;4959118;28;95771;-41
2021/04/14 06:55:37;;;;;;;2.78;1.90;;;21.30;70.40;;;;;;4951050;28;97358;-42
2021/04/14 06:58:19;;;;;;;2.35;2.15;;;21.20;70.30;;;;;;4937591;28;95182;-41
2021/04/14 07:00:57;;;;;;;2.78;2.15;;;21.30;70.30;;;;;;4954378;28;96744;-41
2021/04/14 07:03:46;;;;;;;3.92;2.25;;;21.30;70.20;;;;;;4956819;28;95684;-41
2021/04/14 07:06:21;;;;;;;2.00;1.83;;;21.30;70.10;;;;;;4956888;28;95243;-41
2021/04/14 07:09:19;;;;;;;3.08;1.83;;;21.40;70.10;;;;;;4963432;28;95522;-41
2021/04/14 07:11:49;;;;;;;2.08;1.85;;;21.40;70.10;;;;;;4954946;28;96571;-41
2021/04/14 07:14:21;;;;;;;1.80;1.55;;;21.40;70.10;;;;;;4958763;28;96239;-42
2021/04/14 07:17:09;;;;;;;2.13;1.88;;;21.40;70.10;;;;;;4959820;28;95480;-41
2021/04/14 07:19:58;;;;;;;2.10;1.90;;;21.30;70.00;;;;;;4961553;28;95520;-42
2021/04/14 07:22:34;;;;;;;2.13;2.00;;;21.40;70.10;;;;;;4956065;28;95743;-41
2021/04/14 07:25:36;;;;;;;2.33;1.92;;;21.40;70.10;;;;;;4960069;28;96117;-42
2021/04/14 07:28:44;;;;;;;1.77;1.67;;;21.40;70.10;;;;;;4955581;28;95127;-42
2021/04/14 07:31:29;;;;;;;1.60;1.50;;;21.40;70.20;;;;;;4956750;28;95893;-42
2021/04/14 07:34:22;;;;;;;3.33;1.90;;;21.40;70.10;;;;;;4960329;28;96134;-42
2021/04/14 07:37:05;;;;;;;2.95;1.80;;;21.40;70.10;;;;;;4957246;28;95970;-42
2021/04/14 07:40:11;;;;;;;2.70;1.65;;;21.40;70.10;;;;;;4960204;28;96816;-42
2021/04/14 07:42:52;;;;;;;4.40;2.67;;;21.40;70.10;;;;;;4950906;28;95708;-41
2021/04/14 07:45:27;;;;;;;5.45;3.55;;;21.30;70.50;;;;;;4950937;28;97995;-40
2021/04/14 07:48:05;;;;;;;10.68;3.22;;;21.20;70.90;;;;;;4959748;28;101687;-40
2021/04/14 07:50:41;;;;;;;4.75;3.05;;;21.10;71.40;;;;;;4960661;28;95729;-39
2021/04/14 07:53:27;;;;;;;7.57;2.40;;;21.00;71.60;;;;;;4957812;28;95663;-40
2021/04/14 07:56:08;;;;;;;6.45;2.60;;;21.00;71.90;;;;;;4956700;28;96098;-40
2021/04/14 07:58:42;;;;;;;5.63;2.93;;;20.90;72.00;;;;;;4959015;28;95560;-40
2021/04/14 08:01:14;;;;;;;8.15;3.15;;;20.90;72.10;;;;;;4965678;28;96364;-39
2021/04/14 08:03:46;;;;;;;7.35;3.80;;;20.90;72.20;;;;;;4957931;28;95321;-40
2021/04/14 08:06:19;;;;;;;3.65;2.45;;;20.90;72.30;;;;;;4951964;28;96507;-40
2021/04/14 08:08:50;;;;;;;7.20;2.83;;;20.90;72.40;;;;;;4961651;28;95752;-39
2021/04/14 08:11:30;;;;;;;13.70;4.53;;;20.80;72.30;;;;;;4958668;28;95132;-41
2021/04/14 08:14:30;;;;;;;6.80;3.00;;;20.80;72.60;;;;;;4959626;28;96426;-42
2021/04/14 08:17:15;;;;;;;5.32;3.17;;;20.80;72.30;;;;;;4950027;28;96132;-41
2021/04/14 08:19:47;;;;;;;3.35;2.20;;;20.90;72.00;;;;;;4954703;28;95731;-42
2021/04/14 08:22:16;;;;;;;4.57;2.40;;;20.90;71.80;;;;;;4955304;28;95578;-41
2021/04/14 08:24:53;;;;;;;7.43;2.95;;;21.00;71.60;;;;;;4954931;28;95572;-44
2021/04/14 08:27:26;;;;;;;5.45;2.78;;;21.00;71.60;;;;;;4954774;28;95869;-42
2021/04/14 08:30:31;;;;;;;6.22;2.95;;;21.00;72.30;;;;;;4956403;28;95657;-39
2021/04/14 08:33:09;;;;;;;7.80;3.15;;;20.90;72.40;;;;;;4917414;28;95711;-41
2021/04/14 08:35:48;;;;;;;4.85;4.03;;;20.90;72.40;;;;;;4952699;28;96066;-41
2021/04/14 08:38:31;;;;;;;8.82;3.42;;;20.90;72.30;;;;;;4959981;28;96220;-41
2021/04/14 08:41:03;;;;;;;14.88;4.40;;;20.90;72.20;;;;;;4962651;28;95171;-41
2021/04/14 08:43:41;;;;;;;6.72;3.20;;;20.90;72.10;;;;;;4957378;28;95407;-41
2021/04/14 08:46:37;;;;;;;14.73;4.65;;;20.80;72.20;;;;;;4948657;28;96049;-41
2021/04/14 08:49:25;;;;;;;7.05;3.70;;;20.80;72.40;;;;;;4962587;28;95671;-42
2021/04/14 08:51:58;;;;;;;6.95;3.33;;;20.80;72.30;;;;;;4949867;28;95987;-41
2021/04/14 08:54:33;;;;;;;8.45;3.22;;;20.70;72.30;;;;;;4960390;28;95792;-42
2021/04/14 08:57:09;;;;;;;8.60;3.00;;;20.70;72.40;;;;;;4957943;28;95543;-42
2021/04/14 08:59:42;;;;;;;5.85;3.00;;;20.70;72.50;;;;;;4957834;28;96300;-42
2021/04/14 09:02:19;;;;;;;5.45;3.42;;;20.60;72.10;;;;;;4958847;28;98711;-42
2021/04/14 09:04:52;;;;;;;6.75;3.15;;;20.60;72.40;;;;;;4957206;28;95821;-42
2021/04/14 09:07:37;;;;;;;6.57;3.25;;;20.60;72.50;;;;;;4955198;28;95645;-42
2021/04/14 09:10:24;;;;;;;4.20;3.03;;;20.60;72.40;;;;;;4952010;28;95862;-41
2021/04/14 09:12:56;;;;;;;8.82;2.60;;;20.50;72.40;;;;;;4959114;28;95806;-41
2021/04/14 09:15:25;;;;;;;6.03;2.92;;;20.50;72.50;;;;;;4957347;28;95809;-42
2021/04/14 09:18:04;;;;;;;6.97;3.15;;;20.50;72.60;;;;;;4960401;28;95814;-42
2021/04/14 09:20:37;;;;;;;5.97;2.78;;;20.50;72.40;;;;;;4959114;28;96359;-41
2021/04/14 09:23:18;;;;;;;6.30;3.00;;;20.50;72.40;;;;;;4954550;28;95500;-41
2021/04/14 09:25:54;;;;;;;3.42;2.45;;;20.40;72.50;;;;;;4952295;28;95574;-42
2021/04/14 09:28:37;;;;;;;6.15;2.75;;;20.40;72.50;;;;;;4957358;28;95638;-41
2021/04/14 09:31:26;;;;;;;3.88;2.70;;;20.40;72.50;;;;;;4954727;28;96058;-42
2021/04/14 09:34:09;;;;;;;4.50;2.67;;;20.40;72.30;;;;;;4955201;28;96291;-43
2021/04/14 09:36:46;;;;;;;6.95;2.65;;;20.50;72.10;;;;;;4965218;28;95557;-43
2021/04/14 09:39:34;;;;;;;4.68;2.72;;;20.60;72.10;;;;;;4963278;28;95596;-43
2021/04/14 09:42:23;;;;;;;4.07;2.33;;;20.60;71.90;;;;;;4959797;28;96714;-42
2021/04/14 09:44:58;;;;;;;3.70;2.10;;;20.60;71.80;;;;;;4964265;28;97636;-43
2021/04/14 09:47:30;;;;;;;4.88;2.42;;;20.60;71.60;;;;;;4960286;28;97112;-43
2021/04/14 09:50:17;;;;;;;2.95;2.25;;;20.70;71.60;;;;;;4962032;28;97356;-43
2021/04/14 09:52:59;;;;;;;4.93;2.50;;;20.70;71.50;;;;;;4943899;28;98118;-42
2021/04/14 09:55:57;;;;;;;2.83;2.35;;;20.70;71.40;;;;;;4963798;28;95172;-43
2021/04/14 09:58:46;;;;;;;4.75;2.30;;;20.70;71.30;;;;;;4963503;28;96462;-43
2021/04/14 10:01:28;;;;;;;4.10;2.38;;;20.70;71.30;;;;;;4962721;28;95552;-43
2021/04/14 10:04:01;;;;;;;5.93;2.45;;;20.70;71.20;;;;;;4958103;28;95938;-43
2021/04/14 10:06:31;;;;;;;3.00;2.33;;;20.70;71.20;;;;;;4954890;28;96254;-43
2021/04/14 10:09:06;;;;;;;4.28;2.15;;;20.70;71.10;;;;;;4965403;28;95657;-43
2021/04/14 10:11:39;;;;;;;3.13;1.95;;;20.70;71.10;;;;;;4965738;28;95734;-41
2021/04/14 10:14:22;;;;;;;3.67;2.08;;;20.70;71.10;;;;;;4958535;28;96030;-41
2021/04/14 10:17:07;;;;;;;8.95;3.17;;;20.70;71.00;;;;;;4958524;28;95749;-42
2021/04/14 10:19:38;;;;;;;4.03;2.20;;;20.60;71.00;;;;;;4974908;28;95239;-42
2021/04/14 10:22:17;;;;;;;4.53;2.40;;;20.50;71.20;;;;;;4968672;28;98779;-42
2021/04/14 10:24:48;;;;;;;5.80;1.95;;;20.50;71.40;;;;;;4964575;28;97953;-41
2021/04/14 10:27:21;;;;;;;4.25;2.70;;;20.50;71.50;;;;;;4958627;28;96289;-41
2021/04/14 10:29:54;;;;;;;5.10;2.15;;;20.40;71.40;;;;;;4965256;28;95201;-42
2021/04/14 10:32:25;;;;;;;4.80;2.00;;;20.40;71.50;;;;;;4962786;28;95673;-42
2021/04/14 10:35:05;;;;;;;3.90;2.85;;;20.40;71.50;;;;;;4963006;28;96655;-42
2021/04/14 10:37:44;;;;;;;2.83;2.28;;;20.40;71.60;;;;;;4966821;28;95640;-40
2021/04/14 10:40:28;;;;;;;5.90;2.38;;;20.30;71.60;;;;;;4963322;28;95568;-40
2021/04/14 10:43:09;;;;;;;2.50;1.83;;;20.30;71.50;;;;;;4964549;28;95659;-40
2021/04/14 10:46:06;;;;;;;5.25;2.35;;;20.20;71.60;;;;;;4962429;28;96094;-40
2021/04/14 10:48:48;;;;;;;3.83;2.67;;;20.20;71.60;;;;;;4965408;28;95710;-38
2021/04/14 10:51:22;;;;;;;4.07;1.73;;;20.10;71.50;;;;;;4963927;28;95920;-40
2021/04/14 10:53:58;;;;;;;3.20;2.00;;;20.10;71.50;;;;;;4964396;28;95757;-40
2021/04/14 10:56:31;;;;;;;4.13;1.88;;;20.10;71.30;;;;;;4965782;28;96238;-38
2021/04/14 10:59:09;;;;;;;4.97;1.88;;;20.10;71.40;;;;;;4965626;28;95519;-38
2021/04/14 11:01:48;;;;;;;2.35;1.38;;;20.10;71.40;;;;;;4962127;28;95636;-39
2021/04/14 11:04:31;;;;;;;3.67;2.20;;;20.00;71.40;;;;;;4964340;28;95007;-40
2021/04/14 11:07:13;;;;;;;4.88;2.08;;;20.00;71.60;;;;;;4962447;28;95560;-40
2021/04/14 11:09:46;;;;;;;4.97;2.35;;;20.00;71.60;;;;;;4963890;28;95741;-40
2021/04/14 11:12:24;;;;;;;5.15;1.98;;;20.00;71.60;;;;;;4965537;28;95462;-39
2021/04/14 11:14:58;;;;;;;5.35;2.13;;;20.00;72.20;;;;;;4965130;28;95519;-40
2021/04/14 11:17:32;;;;;;;3.47;2.20;;;20.00;71.90;;;;;;4962357;28;96333;-39
2021/04/14 11:20:07;;;;;;;3.17;2.33;;;19.90;71.80;;;;;;4963844;28;95271;-39
2021/04/14 11:22:47;;;;;;;4.32;2.70;;;19.90;71.80;;;;;;4964285;28;95917;-40
2021/04/14 11:25:36;;;;;;;3.40;2.05;;;19.90;71.80;;;;;;4964302;28;95831;-42
2021/04/14 11:28:15;;;;;;;2.97;1.85;;;19.80;71.80;;;;;;4964466;28;96506;-39
2021/04/14 11:30:58;;;;;;;6.53;2.22;;;19.90;71.80;;;;;;4960249;28;95998;-39
2021/04/14 11:33:45;;;;;;;4.22;2.35;;;19.80;71.80;;;;;;4966308;28;95588;-40
2021/04/14 11:36:25;;;;;;;3.63;1.65;;;19.80;71.90;;;;;;4966562;28;95658;-39
2021/04/14 11:39:12;;;;;;;5.10;1.83;;;19.80;71.90;;;;;;4967188;28;95938;-39
2021/04/14 11:41:45;;;;;;;4.03;2.22;;;19.80;71.80;;;;;;4960831;28;95535;-42
2021/04/14 11:44:37;;;;;;;4.85;1.80;;;19.80;71.90;;;;;;4963849;28;95734;-39
2021/04/14 11:47:09;;;;;;;;;;;19.80;71.90;;;;;;4978087;28;96177;-40
2021/04/14 11:49:41;;;;;;;5.57;2.20;;;19.80;71.90;;;;;;4969361;28;96427;-39
2021/04/14 11:52:35;;;;;;;6.78;2.20;;;19.70;71.80;;;;;;4977000;28;95811;-46
2021/04/14 11:55:27;;;;;;;5.50;2.40;;;19.70;72.10;;;;;;4961294;28;96563;-38
2021/04/14 11:58:19;;;;;;;7.00;1.67;;;19.70;72.40;;;;;;4962541;28;95742;-39
2021/04/14 12:00:49;;;;;;;;;;;19.70;72.20;;;;;;4960547;28;96478;-42
2021/04/14 12:03:20;;;;;;;3.28;2.22;;;19.70;72.20;;;;;;4961363;28;95715;-40
2021/04/14 12:05:56;;;;;;;3.60;1.92;;;19.60;72.10;;;;;;4962123;28;95524;-40
2021/04/14 12:08:29;;;;;;;5.30;2.00;;;19.60;72.40;;;;;;4965491;28;95696;-39
2021/04/14 12:11:05;;;;;;;6.05;2.25;;;19.60;72.20;;;;;;4963100;28;98005;-39
2021/04/14 12:13:35;;;;;;;6.60;2.50;;;19.60;72.20;;;;;;4945635;28;95488;-40
2021/04/14 12:16:07;;;;;;;6.03;1.95;;;19.60;72.20;;;;;;4957731;28;95646;-40
2021/04/14 12:18:38;;;;;;;4.40;2.17;;;19.60;72.20;;;;;;4963011;28;95516;-40
2021/04/14 12:21:09;;;;;;;4.53;1.90;;;19.50;72.30;;;;;;4963097;28;96057;-39
2021/04/14 12:23:40;;;;;;;4.35;2.00;;;19.50;72.30;;;;;;4966715;28;95559;-39
2021/04/14 12:26:10;;;;;;;4.03;1.93;;;19.50;72.40;;;;;;4975289;28;95710;-39
2021/04/14 12:28:41;;;;;;;4.63;1.90;;;19.50;72.40;;;;;;4962593;28;95446;-40
2021/04/14 12:31:13;;;;;;;5.28;2.97;;;19.50;72.40;;;;;;4959148;28;96015;-39
2021/04/14 12:33:51;;;;;;;4.85;1.85;;;19.50;72.30;;;;;;4966713;28;95192;-39
2021/04/14 12:36:21;;;;;;;3.97;2.10;;;19.50;72.30;;;;;;4948028;28;95645;-40
2021/04/14 12:38:52;;;;;;;4.28;2.13;;;19.40;72.40;;;;;;4959383;28;95945;-39
2021/04/14 12:41:22;;;;;;;6.32;2.67;;;19.40;72.30;;;;;;4962422;28;96768;-39
2021/04/14 12:43:52;;;;;;;5.47;2.70;;;19.40;72.40;;;;;;4951850;28;95868;-39
2021/04/14 12:46:23;;;;;;;6.60;1.90;;;19.40;72.40;;;;;;4948937;28;95785;-40
2021/04/14 12:48:53;;;;;;;8.77;3.03;;;19.40;72.40;;;;;;4954861;28;95714;-39
2021/04/14 12:51:27;;;;;;;4.57;2.75;;;19.40;72.50;;;;;;4952296;28;96977;-39
2021/04/14 12:54:24;;;;;;;5.60;2.60;;;19.30;72.40;;;;;;4958401;28;95769;-39
2021/04/14 12:57:23;;;;;;;5.43;2.00;;;19.30;72.40;;;;;;4949052;28;98765;-39
2021/04/14 13:00:06;;;;;;;4.25;2.00;;;19.30;72.40;;;;;;4916091;28;96065;-39
2021/04/14 13:02:49;;;;;;;8.55;2.28;;;19.30;72.30;;;;;;4907199;28;103082;-39
2021/04/14 13:05:46;;;;;;;4.80;2.47;;;19.30;72.30;;;;;;4913744;28;95967;-39
2021/04/14 13:08:46;;;;;;;6.65;3.00;;;19.30;72.40;;;;;;4918114;28;95812;-40
2021/04/14 13:11:32;;;;;;;8.35;2.63;;;19.30;72.30;;;;;;4917208;28;95783;-46
2021/04/14 13:14:04;;;;;;;6.43;3.00;;;19.20;72.20;;;;;;4915776;28;96707;-41
2021/04/14 13:16:52;;;;;;;7.32;2.45;;;19.30;72.20;;;;;;4912015;28;95910;-41
2021/04/14 13:19:25;;;;;;;3.50;2.50;;;19.20;72.20;;;;;;4926837;28;95471;-41
2021/04/14 13:22:03;;;;;;;8.82;3.05;;;19.20;72.20;;;;;;4934359;28;95403;-41
2021/04/14 13:24:46;;;;;;;11.43;3.88;;;19.20;72.10;;;;;;4929885;28;95764;-50
2021/04/14 13:27:42;;;;;;;10.35;2.80;;;19.20;72.20;;;;;;4917439;28;95282;-41
2021/04/14 13:30:16;;;;;;;2.95;1.75;;;19.10;72.70;;;;;;4923274;28;95748;-41
2021/04/14 13:33:26;;;;;;;6.10;2.20;;;19.10;72.10;;;;;;4916422;28;95406;-41
2021/04/14 13:36:08;;;;;;;7.35;2.53;;;19.10;72.20;;;;;;4933326;28;96789;-41
2021/04/14 13:38:41;;;;;;;7.65;2.63;;;19.10;72.10;;;;;;4966095;28;95920;-41
2021/04/14 13:41:41;;;;;;;4.63;2.33;;;19.10;72.20;;;;;;4961900;28;95565;-41
2021/04/14 13:44:20;;;;;;;7.82;2.88;;;19.00;72.10;;;;;;4957744;28;96027;-39